Latest Weather Observations for Cape Bruny AWS

IDT60901

Issued at 6:31 pm EST Thursday 9 April 2020 (issued every 10 minutes, with the page automatically refreshed every 10 minutes)

About weather observations | Map of Hobart area stations | Latest observations for Hobart area | Other Formats
Station Details ID: 094198 Name: CAPE BRUNY (CAPE BRUNY) Lat: -43.49 Lon: 147.14 Height: 59.7 m
Data from the previous 72 hours. | See also: Recent months at Cape Bruny AWS
Date/Time
EST
Temp
°C
App
Temp
°C
Dew
Point
°C
Rel
Hum
%
Delta-T
°C
Wind Press
QNH
hPa
Press
MSL
hPa
Rain since
9am
mm
Dir  Spd
km/h
Gust
km/h
Spd
kts
Gust
kts
09/06:30pm 12.2 10.3 9.2 82 1.5 SSE 9 11 5 6 1022.0 1022.0 0.2
09/06:00pm 13.0 11.6 9.4 79 1.8 SSE 7 7 4 4 1022.2 1022.2 0.2
09/05:30pm 13.9 13.7 9.1 73 2.4 CALM 0 0 0 0 1022.2 1022.2 0.2
09/05:00pm 14.1 12.4 9.9 76 2.2 SE 9 11 5 6 1022.3 1022.3 0.2
09/04:30pm 14.6 13.4 10.2 75 2.3 SW 7 15 4 8 1022.8 1022.8 0.2
09/04:00pm 14.6 12.9 10.0 74 2.4 SE 9 15 5 8 1023.2 1023.2 0.2
09/03:30pm 14.6 12.1 9.8 73 2.5 SE 13 20 7 11 1023.6 1023.6 0.2
09/03:00pm 14.7 11.0 9.5 71 2.7 ESE 19 24 10 13 1023.9 1023.9 0.2
09/02:30pm 15.1 11.9 10.1 72 2.6 ESE 17 24 9 13 1024.2 1024.2 0.2
09/02:00pm 15.0 11.5 10.2 73 2.5 ESE 19 20 10 11 1024.5 1024.5 0.2
09/01:30pm 14.7 11.3 9.3 70 2.8 ESE 17 20 9 11 1025.2 1025.2 0.2
09/01:00pm 14.8 11.1 9.6 71 2.7 ESE 19 24 10 13 1025.9 1025.9 0.2
09/12:30pm 14.5 10.7 8.9 69 2.9 ESE 19 22 10 12 1026.4 1026.4 0.2
09/12:00pm 14.7 11.8 9.5 71 2.7 SE 15 19 8 10 1026.9 1026.9 0.2
09/11:30am 15.1 12.9 9.2 68 3.0 E 11 17 6 9 1027.1 1027.1 0.2
09/11:00am 14.2 11.4 8.6 69 2.8 ENE 13 17 7 9 1027.4 1027.4 0.2
09/10:30am 14.1 12.6 9.3 73 2.5 N 7 11 4 6 1027.9 1027.9 0.0
09/10:00am 13.3 11.1 9.2 76 2.1 NE 11 17 6 9 1028.1 1028.1 0.0
09/09:30am 11.9 8.8 8.9 82 1.5 NNE 15 20 8 11 1028.3 1028.3 0.0
09/09:00am 10.6 7.4 8.5 87 1.0 NNE 15 20 8 11 1028.7 1028.7 0.0
09/08:30am 9.7 6.5 8.3 91 0.7 NNE 15 20 8 11 1028.9 1028.9 0.0
09/08:00am 8.4 4.1 7.2 92 0.6 N 19 24 10 13 1028.5 1028.5 0.0
09/07:30am 7.5 3.0 6.3 92 0.5 N 19 24 10 13 1028.6 1028.6 0.0
09/07:00am 6.9 3.5 5.8 93 0.5 N 13 17 7 9 1028.8 1028.8 0.0
09/06:30am 6.9 3.1 5.7 92 0.5 N 15 19 8 10 1028.7 1028.7 0.0
09/06:00am 7.0 1.9 5.8 92 0.5 N 22 26 12 14 1028.4 1028.4 0.0
09/05:30am 7.0 1.5 5.8 92 0.5 N 24 26 13 14 1028.4 1028.4 0.0
09/05:00am 7.2 2.4 5.8 91 0.6 N 20 24 11 13 1028.3 1028.3 0.0
09/04:30am 7.4 2.7 6.0 91 0.6 N 20 24 11 13 1028.5 1028.5 0.0
09/04:00am 7.5 2.4 6.1 91 0.6 N 22 28 12 15 1028.5 1028.5 0.0
09/03:30am 7.0 3.5 5.5 90 0.7 NNW 13 17 7 9 1028.7 1028.7 0.0
09/03:00am 7.3 4.3 5.8 90 0.7 N 11 17 6 9 1028.9 1028.9 0.0
09/02:30am 7.1 4.4 5.4 89 0.8 NNE 9 13 5 7 1029.1 1029.1 0.0
09/02:00am 7.1 4.0 5.4 89 0.8 N 11 15 6 8 1029.5 1029.5 0.0
09/01:30am 6.7 3.5 5.0 89 0.7 N 11 15 6 8 1029.5 1029.5 0.0
09/01:00am 7.2 4.1 5.5 89 0.8 NNE 11 13 6 7 1029.6 1029.6 0.0
09/12:30am 7.3 3.8 5.3 87 0.9 N 13 15 7 8 1029.6 1029.6 0.0
09/12:00am 7.7 3.9 5.7 87 0.9 N 15 17 8 9 1029.9 1029.9 0.0
 
Date/Time
EST
Temp
°C
App
Temp
°C
Dew
Point
°C
Rel
Hum
%
Delta-T
°C
Wind Press
QNH
hPa
Press
MSL
hPa
Rain since
9am
mm
Dir  Spd
km/h
Gust
km/h
Spd
kts
Gust
kts
08/11:30pm 7.6 3.7 5.4 86 1.0 N 15 17 8 9 1030.2 1030.2 0.0
08/11:00pm 7.6 3.6 5.1 84 1.1 NNW 15 17 8 9 1030.4 1030.4 0.0
08/10:30pm 7.4 4.4 4.2 80 1.4 N 9 11 5 6 1030.4 1030.4 0.0
08/10:00pm 8.1 5.1 4.1 76 1.7 NNW 9 9 5 5 1030.6 1030.6 0.0
08/09:30pm 8.2 6.4 3.5 72 2.0 NW 2 7 1 4 1030.5 1030.5 0.0
08/09:00pm 9.9 8.8 4.9 71 2.2 CALM 0 0 0 0 1030.4 1030.4 0.0
08/08:30pm 9.7 8.5 4.7 71 2.2 CALM 0 0 0 0 1030.2 1030.2 0.0
08/08:00pm 9.4 7.0 4.4 71 2.2 SSW 6 7 3 4 1029.9 1029.9 0.0
08/07:30pm 9.5 7.0 4.5 71 2.2 SW 7 9 4 5 1029.6 1029.6 0.0
08/07:00pm 8.9 5.9 3.9 71 2.2 SW 9 13 5 7 1029.5 1029.5 0.0
08/06:30pm 9.4 6.5 4.4 71 2.2 SW 9 13 5 7 1029.4 1029.4 0.0
08/06:00pm 9.9 7.4 4.5 69 2.4 S 7 15 4 8 1029.2 1029.2 0.0
08/05:30pm 10.6 7.7 4.7 67 2.7 S 9 13 5 7 1028.8 1028.8 0.0
08/05:00pm 11.0 8.1 4.7 65 2.8 SSE 9 11 5 6 1028.6 1028.6 0.0
08/04:30pm 11.2 7.5 4.4 63 3.1 S 13 17 7 9 1028.6 1028.6 0.0
08/04:00pm 11.8 8.5 4.8 62 3.2 S 11 17 6 9 1028.7 1028.7 0.0
08/03:30pm 12.2 8.5 4.4 59 3.5 S 13 19 7 10 1028.7 1028.7 0.0
08/03:00pm 12.3 8.1 4.0 57 3.7 S 15 20 8 11 1028.6 1028.6 0.0
08/02:30pm 12.4 8.3 4.4 58 3.6 S 15 20 8 11 1028.6 1028.6 0.0
08/02:00pm 13.3 9.9 5.7 60 3.6 S 13 20 7 11 1028.7 1028.7 0.0
08/01:30pm 12.9 8.6 5.1 59 3.6 S 17 20 9 11 1028.7 1028.7 0.0
08/01:00pm 13.7 9.6 6.1 60 3.6 S 17 20 9 11 1028.8 1028.8 0.0
08/12:30pm 12.7 8.7 4.7 58 3.7 SSW 15 20 8 11 1029.0 1029.0 0.0
08/12:00pm 12.9 9.2 4.3 56 3.9 W 13 17 7 9 1029.0 1029.0 0.0
08/11:30am 13.2 8.7 4.4 55 4.0 WSW 17 24 9 13 1028.9 1028.9 0.0
08/11:00am 13.2 9.2 4.9 57 3.8 WSW 15 22 8 12 1028.8 1028.8 0.0
08/10:30am 12.3 8.2 4.3 58 3.6 WSW 15 22 8 12 1028.7 1028.7 0.0
08/10:00am 11.8 7.4 4.5 61 3.3 WSW 17 24 9 13 1028.6 1028.6 0.0
08/09:30am 11.5 7.1 4.5 62 3.2 WSW 17 26 9 14 1028.4 1028.4 0.0
08/09:00am 11.2 7.1 4.4 63 3.0 SW 15 22 8 12 1028.1 1028.1 1.2
08/08:30am 10.9 7.2 4.4 64 2.9 WSW 13 17 7 9 1027.5 1027.5 1.2
08/08:00am 10.7 6.9 4.0 63 3.0 SW 13 24 7 13 1027.2 1027.2 1.2
08/07:30am 10.8 6.6 4.0 63 3.0 SSW 15 30 8 16 1026.8 1026.8 1.2
08/07:00am 10.6 6.5 4.5 66 2.7 SW 15 30 8 16 1026.4 1026.4 1.2
08/06:30am 10.8 6.8 4.9 67 2.7 SSW 15 24 8 13 1026.0 1026.0 1.2
08/06:00am 10.9 7.2 6.3 73 2.1 SSW 15 24 8 13 1025.7 1025.7 1.2
08/05:30am 10.8 7.0 5.8 71 2.3 SW 15 22 8 12 1025.4 1025.4 1.2
08/05:00am 10.7 7.1 6.8 77 1.8 SW 15 22 8 12 1025.1 1025.1 1.2
08/04:30am 10.6 7.1 7.3 80 1.6 SW 15 26 8 14 1024.8 1024.8 1.2
08/04:00am 10.6 8.0 7.7 82 1.4 SSW 11 19 6 10 1024.5 1024.5 1.2
08/03:30am 10.1 6.8 7.9 86 1.1 SW 15 22 8 12 1024.4 1024.4 1.2
08/03:00am 10.0 7.9 8.3 89 0.8 W 9 13 5 7 1024.3 1024.3 1.2
08/02:30am 10.2 6.9 8.1 87 1.0 SSW 15 30 8 16 1024.5 1024.5 0.8
08/02:00am 10.4 6.6 7.6 83 1.3 SW 17 24 9 13 1024.2 1024.2 0.8
08/01:30am 10.0 6.3 7.9 87 1.0 SSW 17 32 9 17 1024.1 1024.1 0.8
08/01:00am 10.4 6.2 8.3 87 1.0 W 20 26 11 14 1023.8 1023.8 0.8
08/12:30am 10.2 5.5 7.8 85 1.2 W 22 28 12 15 1023.6 1023.6 0.8
08/12:00am 10.7 6.4 7.9 83 1.4 W 20 28 11 15 1023.5 1023.5 0.8
 
Date/Time
EST
Temp
°C
App
Temp
°C
Dew
Point
°C
Rel
Hum
%
Delta-T
°C
Wind Press
QNH
hPa
Press
MSL
hPa
Rain since
9am
mm
Dir  Spd
km/h
Gust
km/h
Spd
kts
Gust
kts
07/11:30pm 10.9 5.1 8.1 83 1.4 WSW 28 41 15 22 1023.5 1023.5 0.8
07/11:29pm 10.9 5.1 8.1 83 1.4 WSW 28 41 15 22 1023.5 1023.5 0.8
07/11:00pm 10.7 7.0 7.9 83 1.4 WSW 17 20 9 11 1023.4 1023.4 0.8
07/10:30pm 11.1 5.6 7.4 78 1.8 SW 26 37 14 20 1023.4 1023.4 0.8
07/10:00pm 10.8 6.7 8.0 83 1.4 SW 19 28 10 15 1023.2 1023.2 0.8
07/09:30pm 11.2 6.6 8.2 82 1.5 SW 22 35 12 19 1023.0 1023.0 0.8
07/09:00pm 11.0 5.6 8.1 82 1.4 SW 26 35 14 19 1022.8 1022.8 0.8
07/08:30pm 10.8 5.1 8.4 85 1.2 SW 28 37 15 20 1022.5 1022.5 0.8
07/08:00pm 10.7 5.9 9.0 89 0.8 SW 24 35 13 19 1022.2 1022.2 0.6
07/07:30pm 10.8 5.4 9.4 91 0.7 WSW 28 39 15 21 1022.0 1022.0 0.6
07/07:11pm 10.8 5.4 9.4 91 0.7 WSW 28 46 15 25 1021.7 1021.7 0.4
07/07:00pm 11.0 6.0 9.6 91 0.7 WSW 26 33 14 18 1021.6 1021.6 0.2
07/06:30pm 11.1 5.7 9.5 90 0.8 WSW 28 33 15 18 1021.1 1021.1 0.0
07/06:00pm 11.0 4.7 9.1 88 0.9 WSW 32 44 17 24 1020.6 1020.6 0.0
07/05:30pm 11.1 5.3 9.4 89 0.9 WSW 30 39 16 21 1020.4 1020.4 0.0
07/05:18pm 11.2 5.7 9.3 88 1.0 SW 28 46 15 25 1020.2 1020.2 0.0
07/05:00pm 11.6 5.2 9.3 86 1.2 SW 33 46 18 25 1020.0 1020.0 0.0
07/04:30pm 12.2 5.4 9.4 83 1.4 WSW 35 44 19 24 1019.8 1019.8 0.0
07/04:00pm 12.6 6.8 9.4 81 1.6 WSW 30 44 16 24 1020.0 1020.0 0.0
07/03:30pm 12.9 5.8 9.4 79 1.8 WSW 37 46 20 25 1019.9 1019.9 0.0
07/03:00pm 13.3 6.7 10.1 81 1.7 WSW 35 48 19 26 1019.9 1019.9 0.0
07/02:30pm 13.7 8.7 9.6 76 2.1 WSW 26 33 14 18 1019.9 1019.9 0.0
07/02:00pm 14.8 11.2 9.8 72 2.6 WSW 19 28 10 15 1020.1 1020.1 0.0
07/01:30pm 16.1 13.2 9.8 66 3.3 WSW 15 22 8 12 1020.1 1020.1 0.0
07/01:00pm 15.9 12.7 9.8 67 3.2 W 17 22 9 12 1020.3 1020.3 0.0
07/12:30pm 14.3 10.4 9.3 72 2.6 WSW 20 30 11 16 1020.8 1020.8 0.0
07/12:00pm 14.1 10.9 8.3 68 2.9 W 15 20 8 11 1021.0 1021.0 0.0
07/11:30am 14.0 11.0 7.5 65 3.2 W 13 19 7 10 1021.1 1021.1 0.0
07/11:00am 14.5 11.6 8.2 66 3.2 WNW 13 17 7 9 1021.0 1021.0 0.0
07/10:30am 15.1 12.0 8.8 66 3.2 W 15 20 8 11 1021.3 1021.3 0.0
07/10:00am 14.3 10.4 8.5 68 2.9 WNW 19 24 10 13 1021.3 1021.3 0.0
07/09:30am 13.7 9.8 8.5 71 2.6 W 19 24 10 13 1021.3 1021.3 0.0
07/09:00am 13.0 10.0 7.5 69 2.7 NW 13 17 7 9 1021.3 1021.3 0.0
07/08:30am 12.2 8.8 7.5 73 2.3 NNW 15 17 8 9 1021.3 1021.3 0.0
07/08:00am 11.5 8.0 7.0 74 2.1 NW 15 20 8 11 1021.1 1021.1 0.0
07/07:30am 11.1 6.2 7.0 76 2.0 NW 22 33 12 18 1020.9 1020.9 0.0
07/07:00am 10.7 6.2 7.0 78 1.8 WNW 20 30 11 16 1020.5 1020.5 0.0
07/06:30am 10.2 6.2 6.5 78 1.7 NW 17 24 9 13 1020.4 1020.4 0.0
07/06:00am 10.2 6.9 6.2 76 1.9 NW 13 17 7 9 1020.5 1020.5 0.0
07/05:30am 10.5 7.2 6.3 75 2.0 NW 13 20 7 11 1020.5 1020.5 0.0
07/05:00am 10.3 6.9 5.9 74 2.0 NNW 13 20 7 11 1020.4 1020.4 0.0
07/04:30am 10.2 7.1 5.6 73 2.1 WNW 11 17 6 9 1020.2 1020.2 0.0
07/04:00am 10.7 7.3 5.7 71 2.3 WNW 13 17 7 9 1020.2 1020.2 0.0
07/03:30am 10.5 5.6 5.3 70 2.4 NW 20 24 11 13 1020.0 1020.0 0.0
07/03:00am 10.6 5.3 4.9 68 2.6 NW 22 28 12 15 1020.1 1020.1 0.0
07/02:30am 10.7 5.5 5.3 69 2.5 NW 22 30 12 16 1020.4 1020.4 0.0
07/02:00am 10.6 5.3 4.9 68 2.6 NW 22 32 12 17 1020.6 1020.6 0.0
07/01:30am 10.6 5.7 5.2 69 2.5 NW 20 26 11 14 1020.6 1020.6 0.0
07/01:00am 10.9 6.6 5.4 69 2.5 WNW 17 26 9 14 1020.6 1020.6 0.0
07/12:30am 10.9 6.0 5.0 67 2.7 WNW 20 33 11 18 1020.5 1020.5 0.0
07/12:00am 10.8 5.3 6.0 72 2.2 WNW 24 33 13 18 1020.5 1020.5 0.0
 
Date/Time
EST
Temp
°C
App
Temp
°C
Dew
Point
°C
Rel
Hum
%
Delta-T
°C
Wind Press
QNH
hPa
Press
MSL
hPa
Rain since
9am
mm
Dir  Spd
km/h
Gust
km/h
Spd
kts
Gust
kts
06/11:30pm 10.9 3.8 6.3 73 2.2 W 33 43 18 23 1020.4 1020.4 0.0
06/11:00pm 11.0 2.9 6.9 76 1.9 WSW 39 50 21 27 1020.4 1020.4 0.0
06/10:30pm 10.9 2.7 6.6 75 2.0 WSW 39 46 21 25 1020.4 1020.4 0.0
06/10:00pm 10.5 1.5 6.6 77 1.8 WSW 43 54 23 29 1020.4 1020.4 0.0
06/09:30pm 10.4 1.9 6.9 79 1.7 WSW 41 56 22 30 1020.0 1020.0 0.0
06/09:00pm 10.4 1.8 6.5 77 1.8 WSW 41 52 22 28 1020.0 1020.0 0.0
06/08:30pm 10.8 2.9 6.0 72 2.2 WSW 37 48 20 26 1019.9 1019.9 0.0
06/08:00pm 10.8 3.9 6.4 74 2.1 WSW 32 43 17 23 1019.5 1019.5 0.0
06/07:30pm 11.0 2.8 6.4 73 2.2 W 39 57 21 31 1019.2 1019.2 0.0
06/07:29pm 11.1 3.0 6.8 75 2.0 W 39 57 21 31 1019.2 1019.2 0.0
06/07:00pm 10.9 3.8 6.6 75 2.0 WSW 33 46 18 25 1018.9 1018.9 0.0

Latest Capital City Observations: Canberra | Sydney | Melbourne | Brisbane | Adelaide | Perth | Hobart | Darwin

Other formats

Comma delimited format used in spreadsheet applications
http://www.bom.gov.au/fwo/IDT60901/IDT60901.95967.axf

JavaScript Object Notation format (JSON) in row-major order
http://www.bom.gov.au/fwo/IDT60901/IDT60901.95967.json

Data quality

Most of these data are generated automatically and are frequently updated. Quality checks on data are not normally performed. It is possible for incorrect values to appear. Refer to information at About Latest Weather Observations and please check the disclaimer before using these data.